<?xml version="1.0" encoding="UTF-8" standalone="no" ?>
<gpx xmlns="http://www.topografix.com/GPX/1/1" xmlns:xsi="http://www.w3.org/2001/XMLSchema-instance" xsi:schemaLocation="http://www.topografix.com/GPX/1/1 http://www.topografix.com/GPX/1/1/gpx.xsd" version="1.1" creator="VisuGPX - https://www.visugpx.com">
  <metadata>
    <name>ARQUES LA SEYNE SUR MER 1497 KM</name>
    <desc><![CDATA[Rando de Arques dans le Pas de Calais jusque La Seyne sur Mer dans le Var, 1497 km]]></desc>
  </metadata>
  <trk>
    <name><![CDATA[54 - SALON DE PROVENCE VELAUX 28.9 KM]]></name>
    <extensions>
      <line xmlns="http://www.topografix.com/GPX/gpx_style/0/2">
        <color>FF00FF</color>
        <width>4</width>
      </line>
    </extensions>
    <trkseg>
      <trkpt lat="43.64341" lon="5.09564">
        <ele>76</ele>
        <time>2021-12-14T18:14:41+01:00</time>
      </trkpt>
      <trkpt lat="43.64142" lon="5.09699">
        <ele>76</ele>
        <time>2021-12-14T18:14:46+01:00</time>
      </trkpt>
      <trkpt lat="43.64147" lon="5.09736">
        <ele>76</ele>
        <time>2021-12-14T18:14:51+01:00</time>
      </trkpt>
      <trkpt lat="43.64118" lon="5.09803">
        <ele>78</ele>
        <time>2021-12-14T18:14:56+01:00</time>
      </trkpt>
      <trkpt lat="43.64118" lon="5.09884">
        <ele>80</ele>
        <time>2021-12-14T18:15:01+01:00</time>
      </trkpt>
      <trkpt lat="43.64097" lon="5.09908">
        <ele>81</ele>
        <time>2021-12-14T18:15:06+01:00</time>
      </trkpt>
      <trkpt lat="43.64056" lon="5.09914">
        <ele>81</ele>
        <time>2021-12-14T18:15:11+01:00</time>
      </trkpt>
      <trkpt lat="43.64073" lon="5.10049">
        <ele>86</ele>
        <time>2021-12-14T18:15:16+01:00</time>
      </trkpt>
      <trkpt lat="43.64139" lon="5.10308">
        <ele>89</ele>
        <time>2021-12-14T18:15:21+01:00</time>
      </trkpt>
      <trkpt lat="43.64139" lon="5.10371">
        <ele>92</ele>
        <time>2021-12-14T18:15:26+01:00</time>
      </trkpt>
      <trkpt lat="43.64087" lon="5.10494">
        <ele>98</ele>
        <time>2021-12-14T18:15:31+01:00</time>
      </trkpt>
      <trkpt lat="43.6405" lon="5.10657">
        <ele>102</ele>
        <time>2021-12-14T18:15:36+01:00</time>
      </trkpt>
      <trkpt lat="43.63992" lon="5.10822">
        <ele>103</ele>
        <time>2021-12-14T18:15:41+01:00</time>
      </trkpt>
      <trkpt lat="43.63973" lon="5.10919">
        <ele>102</ele>
        <time>2021-12-14T18:15:46+01:00</time>
      </trkpt>
      <trkpt lat="43.63917" lon="5.11034">
        <ele>103</ele>
        <time>2021-12-14T18:15:51+01:00</time>
      </trkpt>
      <trkpt lat="43.63898" lon="5.11229">
        <ele>110</ele>
        <time>2021-12-14T18:15:56+01:00</time>
      </trkpt>
      <trkpt lat="43.63882" lon="5.1144">
        <ele>118</ele>
        <time>2021-12-14T18:16:01+01:00</time>
      </trkpt>
      <trkpt lat="43.63846" lon="5.11566">
        <ele>119</ele>
        <time>2021-12-14T18:16:06+01:00</time>
      </trkpt>
      <trkpt lat="43.63777" lon="5.11803">
        <ele>121</ele>
        <time>2021-12-14T18:16:11+01:00</time>
      </trkpt>
      <trkpt lat="43.63761" lon="5.12012">
        <ele>115</ele>
        <time>2021-12-14T18:16:16+01:00</time>
      </trkpt>
      <trkpt lat="43.63704" lon="5.12171">
        <ele>111</ele>
        <time>2021-12-14T18:16:21+01:00</time>
      </trkpt>
      <trkpt lat="43.63686" lon="5.12273">
        <ele>106</ele>
        <time>2021-12-14T18:16:26+01:00</time>
      </trkpt>
      <trkpt lat="43.63659" lon="5.12357">
        <ele>102</ele>
        <time>2021-12-14T18:16:31+01:00</time>
      </trkpt>
      <trkpt lat="43.63614" lon="5.12406">
        <ele>100</ele>
        <time>2021-12-14T18:16:36+01:00</time>
      </trkpt>
      <trkpt lat="43.6357" lon="5.12566">
        <ele>96</ele>
        <time>2021-12-14T18:16:41+01:00</time>
      </trkpt>
      <trkpt lat="43.63561" lon="5.12645">
        <ele>94</ele>
        <time>2021-12-14T18:16:46+01:00</time>
      </trkpt>
      <trkpt lat="43.63562" lon="5.12741">
        <ele>93</ele>
        <time>2021-12-14T18:16:51+01:00</time>
      </trkpt>
      <trkpt lat="43.63503" lon="5.12894">
        <ele>95</ele>
        <time>2021-12-14T18:16:56+01:00</time>
      </trkpt>
      <trkpt lat="43.63416" lon="5.13042">
        <ele>95</ele>
        <time>2021-12-14T18:17:01+01:00</time>
      </trkpt>
      <trkpt lat="43.63384" lon="5.132">
        <ele>94</ele>
        <time>2021-12-14T18:17:06+01:00</time>
      </trkpt>
      <trkpt lat="43.63412" lon="5.13328">
        <ele>95</ele>
        <time>2021-12-14T18:17:11+01:00</time>
      </trkpt>
      <trkpt lat="43.63421" lon="5.13528">
        <ele>93</ele>
        <time>2021-12-14T18:17:16+01:00</time>
      </trkpt>
      <trkpt lat="43.63389" lon="5.13696">
        <ele>90</ele>
        <time>2021-12-14T18:17:21+01:00</time>
      </trkpt>
      <trkpt lat="43.63407" lon="5.13887">
        <ele>85</ele>
        <time>2021-12-14T18:17:26+01:00</time>
      </trkpt>
      <trkpt lat="43.63343" lon="5.14017">
        <ele>82</ele>
        <time>2021-12-14T18:17:31+01:00</time>
      </trkpt>
      <trkpt lat="43.63323" lon="5.14064">
        <ele>81</ele>
        <time>2021-12-14T18:17:36+01:00</time>
      </trkpt>
      <trkpt lat="43.63299" lon="5.14212">
        <ele>82</ele>
        <time>2021-12-14T18:17:41+01:00</time>
      </trkpt>
      <trkpt lat="43.63266" lon="5.14314">
        <ele>82</ele>
        <time>2021-12-14T18:17:46+01:00</time>
      </trkpt>
      <trkpt lat="43.63245" lon="5.14585">
        <ele>82</ele>
        <time>2021-12-14T18:17:51+01:00</time>
      </trkpt>
      <trkpt lat="43.63153" lon="5.14849">
        <ele>82</ele>
        <time>2021-12-14T18:17:56+01:00</time>
      </trkpt>
      <trkpt lat="43.63047" lon="5.14871">
        <ele>80</ele>
        <time>2021-12-14T18:18:01+01:00</time>
      </trkpt>
      <trkpt lat="43.63023" lon="5.14947">
        <ele>81</ele>
        <time>2021-12-14T18:18:06+01:00</time>
      </trkpt>
      <trkpt lat="43.63036" lon="5.15075">
        <ele>81</ele>
        <time>2021-12-14T18:18:11+01:00</time>
      </trkpt>
      <trkpt lat="43.62914" lon="5.15108">
        <ele>81</ele>
        <time>2021-12-14T18:18:16+01:00</time>
      </trkpt>
      <trkpt lat="43.62906" lon="5.15132">
        <ele>81</ele>
        <time>2021-12-14T18:18:21+01:00</time>
      </trkpt>
      <trkpt lat="43.62879" lon="5.15138">
        <ele>81</ele>
        <time>2021-12-14T18:18:26+01:00</time>
      </trkpt>
      <trkpt lat="43.6287" lon="5.15159">
        <ele>81</ele>
        <time>2021-12-14T18:18:31+01:00</time>
      </trkpt>
      <trkpt lat="43.62808" lon="5.15187">
        <ele>81</ele>
        <time>2021-12-14T18:18:36+01:00</time>
      </trkpt>
      <trkpt lat="43.628" lon="5.15141">
        <ele>81</ele>
        <time>2021-12-14T18:18:41+01:00</time>
      </trkpt>
      <trkpt lat="43.62759" lon="5.1513">
        <ele>81</ele>
        <time>2021-12-14T18:18:46+01:00</time>
      </trkpt>
      <trkpt lat="43.62765" lon="5.15173">
        <ele>81</ele>
        <time>2021-12-14T18:18:51+01:00</time>
      </trkpt>
      <trkpt lat="43.62683" lon="5.152">
        <ele>81</ele>
        <time>2021-12-14T18:18:56+01:00</time>
      </trkpt>
      <trkpt lat="43.62649" lon="5.15129">
        <ele>81</ele>
        <time>2021-12-14T18:19:01+01:00</time>
      </trkpt>
      <trkpt lat="43.62586" lon="5.15072">
        <ele>80</ele>
        <time>2021-12-14T18:19:06+01:00</time>
      </trkpt>
      <trkpt lat="43.62525" lon="5.15146">
        <ele>80</ele>
        <time>2021-12-14T18:19:11+01:00</time>
      </trkpt>
      <trkpt lat="43.6241" lon="5.15192">
        <ele>80</ele>
        <time>2021-12-14T18:19:16+01:00</time>
      </trkpt>
      <trkpt lat="43.6215" lon="5.15287">
        <ele>79</ele>
        <time>2021-12-14T18:19:21+01:00</time>
      </trkpt>
      <trkpt lat="43.62016" lon="5.15364">
        <ele>79</ele>
        <time>2021-12-14T18:19:26+01:00</time>
      </trkpt>
      <trkpt lat="43.61908" lon="5.15457">
        <ele>79</ele>
        <time>2021-12-14T18:19:31+01:00</time>
      </trkpt>
      <trkpt lat="43.61825" lon="5.15524">
        <ele>79</ele>
        <time>2021-12-14T18:19:36+01:00</time>
      </trkpt>
      <trkpt lat="43.61782" lon="5.15606">
        <ele>79</ele>
        <time>2021-12-14T18:19:41+01:00</time>
      </trkpt>
      <trkpt lat="43.6173" lon="5.15659">
        <ele>78</ele>
        <time>2021-12-14T18:19:46+01:00</time>
      </trkpt>
      <trkpt lat="43.61702" lon="5.15713">
        <ele>78</ele>
        <time>2021-12-14T18:19:51+01:00</time>
      </trkpt>
      <trkpt lat="43.61538" lon="5.15752">
        <ele>77</ele>
        <time>2021-12-14T18:19:56+01:00</time>
      </trkpt>
      <trkpt lat="43.61396" lon="5.15793">
        <ele>77</ele>
        <time>2021-12-14T18:20:01+01:00</time>
      </trkpt>
      <trkpt lat="43.61345" lon="5.15816">
        <ele>77</ele>
        <time>2021-12-14T18:20:06+01:00</time>
      </trkpt>
      <trkpt lat="43.61117" lon="5.15858">
        <ele>75</ele>
        <time>2021-12-14T18:20:11+01:00</time>
      </trkpt>
      <trkpt lat="43.61019" lon="5.15904">
        <ele>75</ele>
        <time>2021-12-14T18:20:16+01:00</time>
      </trkpt>
      <trkpt lat="43.6083" lon="5.15939">
        <ele>76</ele>
        <time>2021-12-14T18:20:21+01:00</time>
      </trkpt>
      <trkpt lat="43.60715" lon="5.15958">
        <ele>78</ele>
        <time>2021-12-14T18:20:26+01:00</time>
      </trkpt>
      <trkpt lat="43.60645" lon="5.15942">
        <ele>80</ele>
        <time>2021-12-14T18:20:31+01:00</time>
      </trkpt>
      <trkpt lat="43.60515" lon="5.16012">
        <ele>86</ele>
        <time>2021-12-14T18:20:36+01:00</time>
      </trkpt>
      <trkpt lat="43.60457" lon="5.16002">
        <ele>86</ele>
        <time>2021-12-14T18:20:41+01:00</time>
      </trkpt>
      <trkpt lat="43.60378" lon="5.16006">
        <ele>84</ele>
        <time>2021-12-14T18:20:46+01:00</time>
      </trkpt>
      <trkpt lat="43.60328" lon="5.16066">
        <ele>85</ele>
        <time>2021-12-14T18:20:51+01:00</time>
      </trkpt>
      <trkpt lat="43.60273" lon="5.16086">
        <ele>82</ele>
        <time>2021-12-14T18:20:56+01:00</time>
      </trkpt>
      <trkpt lat="43.60175" lon="5.15991">
        <ele>79</ele>
        <time>2021-12-14T18:21:01+01:00</time>
      </trkpt>
      <trkpt lat="43.60028" lon="5.16001">
        <ele>80</ele>
        <time>2021-12-14T18:21:06+01:00</time>
      </trkpt>
      <trkpt lat="43.59896" lon="5.15966">
        <ele>79</ele>
        <time>2021-12-14T18:21:11+01:00</time>
      </trkpt>
      <trkpt lat="43.59842" lon="5.16037">
        <ele>80</ele>
        <time>2021-12-14T18:21:16+01:00</time>
      </trkpt>
      <trkpt lat="43.59717" lon="5.15934">
        <ele>82</ele>
        <time>2021-12-14T18:21:21+01:00</time>
      </trkpt>
      <trkpt lat="43.59674" lon="5.15948">
        <ele>82</ele>
        <time>2021-12-14T18:21:26+01:00</time>
      </trkpt>
      <trkpt lat="43.59496" lon="5.15889">
        <ele>82</ele>
        <time>2021-12-14T18:21:31+01:00</time>
      </trkpt>
      <trkpt lat="43.59415" lon="5.15863">
        <ele>84</ele>
        <time>2021-12-14T18:21:36+01:00</time>
      </trkpt>
      <trkpt lat="43.59258" lon="5.1594">
        <ele>84</ele>
        <time>2021-12-14T18:21:41+01:00</time>
      </trkpt>
      <trkpt lat="43.59113" lon="5.1604">
        <ele>87</ele>
        <time>2021-12-14T18:21:46+01:00</time>
      </trkpt>
      <trkpt lat="43.58991" lon="5.16132">
        <ele>89</ele>
        <time>2021-12-14T18:21:51+01:00</time>
      </trkpt>
      <trkpt lat="43.58897" lon="5.16214">
        <ele>92</ele>
        <time>2021-12-14T18:21:56+01:00</time>
      </trkpt>
      <trkpt lat="43.58838" lon="5.16232">
        <ele>93</ele>
        <time>2021-12-14T18:22:01+01:00</time>
      </trkpt>
      <trkpt lat="43.58753" lon="5.16351">
        <ele>95</ele>
        <time>2021-12-14T18:22:06+01:00</time>
      </trkpt>
      <trkpt lat="43.58762" lon="5.16382">
        <ele>95</ele>
        <time>2021-12-14T18:22:11+01:00</time>
      </trkpt>
      <trkpt lat="43.58524" lon="5.16479">
        <ele>99</ele>
        <time>2021-12-14T18:22:16+01:00</time>
      </trkpt>
      <trkpt lat="43.58486" lon="5.16562">
        <ele>101</ele>
        <time>2021-12-14T18:22:21+01:00</time>
      </trkpt>
      <trkpt lat="43.58355" lon="5.16625">
        <ele>104</ele>
        <time>2021-12-14T18:22:26+01:00</time>
      </trkpt>
      <trkpt lat="43.58158" lon="5.16775">
        <ele>110</ele>
        <time>2021-12-14T18:22:31+01:00</time>
      </trkpt>
      <trkpt lat="43.58073" lon="5.16846">
        <ele>113</ele>
        <time>2021-12-14T18:22:36+01:00</time>
      </trkpt>
      <trkpt lat="43.57953" lon="5.16883">
        <ele>118</ele>
        <time>2021-12-14T18:22:41+01:00</time>
      </trkpt>
      <trkpt lat="43.57778" lon="5.16973">
        <ele>122</ele>
        <time>2021-12-14T18:22:46+01:00</time>
      </trkpt>
      <trkpt lat="43.57638" lon="5.17059">
        <ele>125</ele>
        <time>2021-12-14T18:22:51+01:00</time>
      </trkpt>
      <trkpt lat="43.576" lon="5.1705">
        <ele>132</ele>
        <time>2021-12-14T18:22:56+01:00</time>
      </trkpt>
      <trkpt lat="43.57487" lon="5.17114">
        <ele>131</ele>
        <time>2021-12-14T18:23:01+01:00</time>
      </trkpt>
      <trkpt lat="43.57411" lon="5.17072">
        <ele>135</ele>
        <time>2021-12-14T18:23:06+01:00</time>
      </trkpt>
      <trkpt lat="43.57348" lon="5.17088">
        <ele>135</ele>
        <time>2021-12-14T18:23:11+01:00</time>
      </trkpt>
      <trkpt lat="43.5727" lon="5.17086">
        <ele>139</ele>
        <time>2021-12-14T18:23:16+01:00</time>
      </trkpt>
      <trkpt lat="43.57173" lon="5.17091">
        <ele>145</ele>
        <time>2021-12-14T18:23:21+01:00</time>
      </trkpt>
      <trkpt lat="43.57075" lon="5.17119">
        <ele>147</ele>
        <time>2021-12-14T18:23:26+01:00</time>
      </trkpt>
      <trkpt lat="43.57084" lon="5.17077">
        <ele>147</ele>
        <time>2021-12-14T18:23:31+01:00</time>
      </trkpt>
      <trkpt lat="43.57029" lon="5.1708">
        <ele>149</ele>
        <time>2021-12-14T18:23:36+01:00</time>
      </trkpt>
      <trkpt lat="43.57012" lon="5.17203">
        <ele>150</ele>
        <time>2021-12-14T18:23:41+01:00</time>
      </trkpt>
      <trkpt lat="43.57015" lon="5.17324">
        <ele>155</ele>
        <time>2021-12-14T18:23:46+01:00</time>
      </trkpt>
      <trkpt lat="43.57031" lon="5.1736">
        <ele>159</ele>
        <time>2021-12-14T18:23:51+01:00</time>
      </trkpt>
      <trkpt lat="43.56998" lon="5.17465">
        <ele>157</ele>
        <time>2021-12-14T18:23:56+01:00</time>
      </trkpt>
      <trkpt lat="43.56963" lon="5.17609">
        <ele>156</ele>
        <time>2021-12-14T18:24:01+01:00</time>
      </trkpt>
      <trkpt lat="43.56919" lon="5.17763">
        <ele>156</ele>
        <time>2021-12-14T18:24:06+01:00</time>
      </trkpt>
      <trkpt lat="43.56857" lon="5.17892">
        <ele>159</ele>
        <time>2021-12-14T18:24:11+01:00</time>
      </trkpt>
      <trkpt lat="43.56783" lon="5.17966">
        <ele>166</ele>
        <time>2021-12-14T18:24:16+01:00</time>
      </trkpt>
      <trkpt lat="43.56686" lon="5.17966">
        <ele>175</ele>
        <time>2021-12-14T18:24:21+01:00</time>
      </trkpt>
      <trkpt lat="43.5657" lon="5.18007">
        <ele>181</ele>
        <time>2021-12-14T18:24:26+01:00</time>
      </trkpt>
      <trkpt lat="43.56466" lon="5.18102">
        <ele>179</ele>
        <time>2021-12-14T18:24:31+01:00</time>
      </trkpt>
      <trkpt lat="43.56461" lon="5.18283">
        <ele>181</ele>
        <time>2021-12-14T18:24:36+01:00</time>
      </trkpt>
      <trkpt lat="43.56501" lon="5.18455">
        <ele>183</ele>
        <time>2021-12-14T18:24:41+01:00</time>
      </trkpt>
      <trkpt lat="43.56488" lon="5.18559">
        <ele>185</ele>
        <time>2021-12-14T18:24:46+01:00</time>
      </trkpt>
      <trkpt lat="43.5647" lon="5.18685">
        <ele>187</ele>
        <time>2021-12-14T18:24:51+01:00</time>
      </trkpt>
      <trkpt lat="43.56419" lon="5.18866">
        <ele>185</ele>
        <time>2021-12-14T18:24:56+01:00</time>
      </trkpt>
      <trkpt lat="43.56365" lon="5.18937">
        <ele>185</ele>
        <time>2021-12-14T18:25:01+01:00</time>
      </trkpt>
      <trkpt lat="43.56331" lon="5.19025">
        <ele>185</ele>
        <time>2021-12-14T18:25:06+01:00</time>
      </trkpt>
      <trkpt lat="43.5629" lon="5.19097">
        <ele>183</ele>
        <time>2021-12-14T18:25:11+01:00</time>
      </trkpt>
      <trkpt lat="43.56265" lon="5.19253">
        <ele>185</ele>
        <time>2021-12-14T18:25:16+01:00</time>
      </trkpt>
      <trkpt lat="43.56232" lon="5.19351">
        <ele>184</ele>
        <time>2021-12-14T18:25:21+01:00</time>
      </trkpt>
      <trkpt lat="43.56203" lon="5.19364">
        <ele>183</ele>
        <time>2021-12-14T18:25:26+01:00</time>
      </trkpt>
      <trkpt lat="43.56185" lon="5.19294">
        <ele>178</ele>
        <time>2021-12-14T18:25:31+01:00</time>
      </trkpt>
      <trkpt lat="43.56214" lon="5.19168">
        <ele>167</ele>
        <time>2021-12-14T18:25:36+01:00</time>
      </trkpt>
      <trkpt lat="43.56187" lon="5.19068">
        <ele>165</ele>
        <time>2021-12-14T18:25:41+01:00</time>
      </trkpt>
      <trkpt lat="43.56111" lon="5.19092">
        <ele>159</ele>
        <time>2021-12-14T18:25:46+01:00</time>
      </trkpt>
      <trkpt lat="43.5603" lon="5.19194">
        <ele>144</ele>
        <time>2021-12-14T18:25:51+01:00</time>
      </trkpt>
      <trkpt lat="43.55922" lon="5.19241">
        <ele>131</ele>
        <time>2021-12-14T18:25:56+01:00</time>
      </trkpt>
      <trkpt lat="43.5587" lon="5.19287">
        <ele>127</ele>
        <time>2021-12-14T18:26:01+01:00</time>
      </trkpt>
      <trkpt lat="43.55759" lon="5.19341">
        <ele>115</ele>
        <time>2021-12-14T18:26:06+01:00</time>
      </trkpt>
      <trkpt lat="43.55636" lon="5.19341">
        <ele>102</ele>
        <time>2021-12-14T18:26:11+01:00</time>
      </trkpt>
      <trkpt lat="43.55596" lon="5.19336">
        <ele>98</ele>
        <time>2021-12-14T18:26:16+01:00</time>
      </trkpt>
      <trkpt lat="43.55571" lon="5.19377">
        <ele>96</ele>
        <time>2021-12-14T18:26:21+01:00</time>
      </trkpt>
      <trkpt lat="43.55541" lon="5.1935">
        <ele>93</ele>
        <time>2021-12-14T18:26:26+01:00</time>
      </trkpt>
      <trkpt lat="43.55484" lon="5.193">
        <ele>86</ele>
        <time>2021-12-14T18:26:31+01:00</time>
      </trkpt>
      <trkpt lat="43.55389" lon="5.19289">
        <ele>78</ele>
        <time>2021-12-14T18:26:36+01:00</time>
      </trkpt>
      <trkpt lat="43.55371" lon="5.1933">
        <ele>76</ele>
        <time>2021-12-14T18:26:41+01:00</time>
      </trkpt>
      <trkpt lat="43.55345" lon="5.19309">
        <ele>74</ele>
        <time>2021-12-14T18:26:46+01:00</time>
      </trkpt>
      <trkpt lat="43.55212" lon="5.19343">
        <ele>64</ele>
        <time>2021-12-14T18:26:51+01:00</time>
      </trkpt>
      <trkpt lat="43.55125" lon="5.1942">
        <ele>57</ele>
        <time>2021-12-14T18:26:56+01:00</time>
      </trkpt>
      <trkpt lat="43.55038" lon="5.19394">
        <ele>52</ele>
        <time>2021-12-14T18:27:01+01:00</time>
      </trkpt>
      <trkpt lat="43.55046" lon="5.19531">
        <ele>52</ele>
        <time>2021-12-14T18:27:06+01:00</time>
      </trkpt>
      <trkpt lat="43.55066" lon="5.19805">
        <ele>53</ele>
        <time>2021-12-14T18:27:11+01:00</time>
      </trkpt>
      <trkpt lat="43.54969" lon="5.19811">
        <ele>49</ele>
        <time>2021-12-14T18:27:16+01:00</time>
      </trkpt>
      <trkpt lat="43.54967" lon="5.19972">
        <ele>50</ele>
        <time>2021-12-14T18:27:21+01:00</time>
      </trkpt>
      <trkpt lat="43.54926" lon="5.20196">
        <ele>49</ele>
        <time>2021-12-14T18:27:26+01:00</time>
      </trkpt>
      <trkpt lat="43.54719" lon="5.20167">
        <ele>42</ele>
        <time>2021-12-14T18:27:31+01:00</time>
      </trkpt>
      <trkpt lat="43.54524" lon="5.2015">
        <ele>41</ele>
        <time>2021-12-14T18:27:36+01:00</time>
      </trkpt>
      <trkpt lat="43.54148" lon="5.20118">
        <ele>41</ele>
        <time>2021-12-14T18:27:41+01:00</time>
      </trkpt>
      <trkpt lat="43.54123" lon="5.19798">
        <ele>39</ele>
        <time>2021-12-14T18:27:46+01:00</time>
      </trkpt>
      <trkpt lat="43.53755" lon="5.19785">
        <ele>39</ele>
        <time>2021-12-14T18:27:51+01:00</time>
      </trkpt>
      <trkpt lat="43.53603" lon="5.1978">
        <ele>37</ele>
        <time>2021-12-14T18:27:56+01:00</time>
      </trkpt>
      <trkpt lat="43.53446" lon="5.1934">
        <ele>35</ele>
        <time>2021-12-14T18:28:01+01:00</time>
      </trkpt>
      <trkpt lat="43.53396" lon="5.19368">
        <ele>35</ele>
        <time>2021-12-14T18:28:06+01:00</time>
      </trkpt>
      <trkpt lat="43.53389" lon="5.19412">
        <ele>35</ele>
        <time>2021-12-14T18:28:11+01:00</time>
      </trkpt>
      <trkpt lat="43.53288" lon="5.19472">
        <ele>28</ele>
        <time>2021-12-14T18:28:16+01:00</time>
      </trkpt>
      <trkpt lat="43.5317" lon="5.19561">
        <ele>30</ele>
        <time>2021-12-14T18:28:21+01:00</time>
      </trkpt>
      <trkpt lat="43.53179" lon="5.19603">
        <ele>30</ele>
        <time>2021-12-14T18:28:26+01:00</time>
      </trkpt>
      <trkpt lat="43.53221" lon="5.19682">
        <ele>29</ele>
        <time>2021-12-14T18:28:31+01:00</time>
      </trkpt>
      <trkpt lat="43.53222" lon="5.19759">
        <ele>29</ele>
        <time>2021-12-14T18:28:36+01:00</time>
      </trkpt>
      <trkpt lat="43.53166" lon="5.19826">
        <ele>32</ele>
        <time>2021-12-14T18:28:41+01:00</time>
      </trkpt>
      <trkpt lat="43.53168" lon="5.19878">
        <ele>33</ele>
        <time>2021-12-14T18:28:46+01:00</time>
      </trkpt>
      <trkpt lat="43.53152" lon="5.19923">
        <ele>36</ele>
        <time>2021-12-14T18:28:51+01:00</time>
      </trkpt>
      <trkpt lat="43.53193" lon="5.20037">
        <ele>34</ele>
        <time>2021-12-14T18:28:56+01:00</time>
      </trkpt>
      <trkpt lat="43.53246" lon="5.20093">
        <ele>32</ele>
        <time>2021-12-14T18:29:01+01:00</time>
      </trkpt>
      <trkpt lat="43.53326" lon="5.2018">
        <ele>32</ele>
        <time>2021-12-14T18:29:06+01:00</time>
      </trkpt>
      <trkpt lat="43.53393" lon="5.20229">
        <ele>34</ele>
        <time>2021-12-14T18:29:11+01:00</time>
      </trkpt>
      <trkpt lat="43.53494" lon="5.20231">
        <ele>33</ele>
        <time>2021-12-14T18:29:16+01:00</time>
      </trkpt>
      <trkpt lat="43.53605" lon="5.20396">
        <ele>35</ele>
        <time>2021-12-14T18:29:21+01:00</time>
      </trkpt>
      <trkpt lat="43.5369" lon="5.20627">
        <ele>34</ele>
        <time>2021-12-14T18:29:26+01:00</time>
      </trkpt>
      <trkpt lat="43.53724" lon="5.20822">
        <ele>37</ele>
        <time>2021-12-14T18:29:31+01:00</time>
      </trkpt>
      <trkpt lat="43.5379" lon="5.20905">
        <ele>37</ele>
        <time>2021-12-14T18:29:36+01:00</time>
      </trkpt>
      <trkpt lat="43.53844" lon="5.21015">
        <ele>38</ele>
        <time>2021-12-14T18:29:41+01:00</time>
      </trkpt>
      <trkpt lat="43.53964" lon="5.21089">
        <ele>37</ele>
        <time>2021-12-14T18:29:46+01:00</time>
      </trkpt>
      <trkpt lat="43.54005" lon="5.21184">
        <ele>35</ele>
        <time>2021-12-14T18:29:51+01:00</time>
      </trkpt>
      <trkpt lat="43.54017" lon="5.21305">
        <ele>35</ele>
        <time>2021-12-14T18:29:56+01:00</time>
      </trkpt>
      <trkpt lat="43.53977" lon="5.2141">
        <ele>35</ele>
        <time>2021-12-14T18:30:01+01:00</time>
      </trkpt>
      <trkpt lat="43.53897" lon="5.21449">
        <ele>36</ele>
        <time>2021-12-14T18:30:06+01:00</time>
      </trkpt>
      <trkpt lat="43.53838" lon="5.21454">
        <ele>40</ele>
        <time>2021-12-14T18:30:11+01:00</time>
      </trkpt>
      <trkpt lat="43.53818" lon="5.21519">
        <ele>39</ele>
        <time>2021-12-14T18:30:16+01:00</time>
      </trkpt>
      <trkpt lat="43.53815" lon="5.21595">
        <ele>42</ele>
        <time>2021-12-14T18:30:21+01:00</time>
      </trkpt>
      <trkpt lat="43.53737" lon="5.21691">
        <ele>53</ele>
        <time>2021-12-14T18:30:26+01:00</time>
      </trkpt>
      <trkpt lat="43.53748" lon="5.21763">
        <ele>52</ele>
        <time>2021-12-14T18:30:31+01:00</time>
      </trkpt>
      <trkpt lat="43.53831" lon="5.21947">
        <ele>56</ele>
        <time>2021-12-14T18:30:36+01:00</time>
      </trkpt>
      <trkpt lat="43.53891" lon="5.21968">
        <ele>54</ele>
        <time>2021-12-14T18:30:41+01:00</time>
      </trkpt>
      <trkpt lat="43.54036" lon="5.22168">
        <ele>51</ele>
        <time>2021-12-14T18:30:46+01:00</time>
      </trkpt>
      <trkpt lat="43.54042" lon="5.22238">
        <ele>54</ele>
        <time>2021-12-14T18:30:51+01:00</time>
      </trkpt>
      <trkpt lat="43.54041" lon="5.22345">
        <ele>57</ele>
        <time>2021-12-14T18:30:56+01:00</time>
      </trkpt>
      <trkpt lat="43.5408" lon="5.22458">
        <ele>54</ele>
        <time>2021-12-14T18:31:01+01:00</time>
      </trkpt>
      <trkpt lat="43.54131" lon="5.22462">
        <ele>51</ele>
        <time>2021-12-14T18:31:06+01:00</time>
      </trkpt>
      <trkpt lat="43.5419" lon="5.22664">
        <ele>51</ele>
        <time>2021-12-14T18:31:11+01:00</time>
      </trkpt>
      <trkpt lat="43.5416" lon="5.22754">
        <ele>56</ele>
        <time>2021-12-14T18:31:16+01:00</time>
      </trkpt>
      <trkpt lat="43.54208" lon="5.22946">
        <ele>56</ele>
        <time>2021-12-14T18:31:21+01:00</time>
      </trkpt>
      <trkpt lat="43.54222" lon="5.23031">
        <ele>56</ele>
        <time>2021-12-14T18:31:26+01:00</time>
      </trkpt>
      <trkpt lat="43.5424" lon="5.23273">
        <ele>64</ele>
        <time>2021-12-14T18:31:31+01:00</time>
      </trkpt>
      <trkpt lat="43.54206" lon="5.2327">
        <ele>68</ele>
        <time>2021-12-14T18:31:36+01:00</time>
      </trkpt>
      <trkpt lat="43.54204" lon="5.23303">
        <ele>69</ele>
        <time>2021-12-14T18:31:41+01:00</time>
      </trkpt>
      <trkpt lat="43.5416" lon="5.23291">
        <ele>74</ele>
        <time>2021-12-14T18:31:46+01:00</time>
      </trkpt>
      <trkpt lat="43.54048" lon="5.23365">
        <ele>92</ele>
        <time>2021-12-14T18:31:51+01:00</time>
      </trkpt>
      <trkpt lat="43.539" lon="5.23452">
        <ele>144</ele>
        <time>2021-12-14T18:31:56+01:00</time>
      </trkpt>
      <trkpt lat="43.53875" lon="5.23424">
        <ele>146</ele>
        <time>2021-12-14T18:32:01+01:00</time>
      </trkpt>
      <trkpt lat="43.53872" lon="5.23478">
        <ele>149</ele>
        <time>2021-12-14T18:32:06+01:00</time>
      </trkpt>
      <trkpt lat="43.53939" lon="5.23594">
        <ele>157</ele>
        <time>2021-12-14T18:32:11+01:00</time>
      </trkpt>
      <trkpt lat="43.53968" lon="5.2373">
        <ele>160</ele>
        <time>2021-12-14T18:32:16+01:00</time>
      </trkpt>
      <trkpt lat="43.54017" lon="5.2372">
        <ele>160</ele>
        <time>2021-12-14T18:32:21+01:00</time>
      </trkpt>
      <trkpt lat="43.54021" lon="5.23841">
        <ele>160</ele>
        <time>2021-12-14T18:32:26+01:00</time>
      </trkpt>
      <trkpt lat="43.54041" lon="5.23881">
        <ele>157</ele>
        <time>2021-12-14T18:32:31+01:00</time>
      </trkpt>
      <trkpt lat="43.54024" lon="5.23943">
        <ele>152</ele>
        <time>2021-12-14T18:32:36+01:00</time>
      </trkpt>
      <trkpt lat="43.53929" lon="5.24008">
        <ele>138</ele>
        <time>2021-12-14T18:32:41+01:00</time>
      </trkpt>
      <trkpt lat="43.53945" lon="5.24048">
        <ele>136</ele>
        <time>2021-12-14T18:32:46+01:00</time>
      </trkpt>
      <trkpt lat="43.53928" lon="5.24157">
        <ele>129</ele>
        <time>2021-12-14T18:32:51+01:00</time>
      </trkpt>
      <trkpt lat="43.53864" lon="5.24224">
        <ele>127</ele>
        <time>2021-12-14T18:32:56+01:00</time>
      </trkpt>
      <trkpt lat="43.53825" lon="5.24262">
        <ele>126</ele>
        <time>2021-12-14T18:33:01+01:00</time>
      </trkpt>
      <trkpt lat="43.5385" lon="5.24275">
        <ele>131</ele>
        <time>2021-12-14T18:33:06+01:00</time>
      </trkpt>
      <trkpt lat="43.53888" lon="5.24374">
        <ele>135</ele>
        <time>2021-12-14T18:33:11+01:00</time>
      </trkpt>
      <trkpt lat="43.53902" lon="5.24432">
        <ele>132</ele>
        <time>2021-12-14T18:33:16+01:00</time>
      </trkpt>
      <trkpt lat="43.5384" lon="5.24478">
        <ele>120</ele>
        <time>2021-12-14T18:33:21+01:00</time>
      </trkpt>
      <trkpt lat="43.53679" lon="5.24585">
        <ele>102</ele>
        <time>2021-12-14T18:33:26+01:00</time>
      </trkpt>
      <trkpt lat="43.53653" lon="5.24601">
        <ele>99</ele>
        <time>2021-12-14T18:33:31+01:00</time>
      </trkpt>
      <trkpt lat="43.53659" lon="5.24712">
        <ele>98</ele>
        <time>2021-12-14T18:33:36+01:00</time>
      </trkpt>
      <trkpt lat="43.53635" lon="5.24727">
        <ele>93</ele>
        <time>2021-12-14T18:33:41+01:00</time>
      </trkpt>
      <trkpt lat="43.53648" lon="5.24819">
        <ele>93</ele>
        <time>2021-12-14T18:33:46+01:00</time>
      </trkpt>
      <trkpt lat="43.53587" lon="5.24834">
        <ele>84</ele>
        <time>2021-12-14T18:33:51+01:00</time>
      </trkpt>
      <trkpt lat="43.53564" lon="5.24806">
        <ele>81</ele>
        <time>2021-12-14T18:33:56+01:00</time>
      </trkpt>
      <trkpt lat="43.5352" lon="5.2484">
        <ele>78</ele>
        <time>2021-12-14T18:34:01+01:00</time>
      </trkpt>
      <trkpt lat="43.53475" lon="5.24822">
        <ele>76</ele>
        <time>2021-12-14T18:34:06+01:00</time>
      </trkpt>
      <trkpt lat="43.53346" lon="5.24847">
        <ele>70</ele>
        <time>2021-12-14T18:34:11+01:00</time>
      </trkpt>
      <trkpt lat="43.53364" lon="5.24924">
        <ele>71</ele>
        <time>2021-12-14T18:34:16+01:00</time>
      </trkpt>
      <trkpt lat="43.53232" lon="5.24991">
        <ele>70</ele>
        <time>2021-12-14T18:34:21+01:00</time>
      </trkpt>
      <trkpt lat="43.53216" lon="5.24962">
        <ele>68</ele>
        <time>2021-12-14T18:34:26+01:00</time>
      </trkpt>
      <trkpt lat="43.5319" lon="5.24956">
        <ele>67</ele>
        <time>2021-12-14T18:34:31+01:00</time>
      </trkpt>
      <trkpt lat="43.53191" lon="5.24936">
        <ele>67</ele>
        <time>2021-12-14T18:34:36+01:00</time>
      </trkpt>
      <trkpt lat="43.53141" lon="5.24825">
        <ele>66</ele>
        <time>2021-12-14T18:34:41+01:00</time>
      </trkpt>
      <trkpt lat="43.52992" lon="5.24893">
        <ele>68</ele>
        <time>2021-12-14T18:34:46+01:00</time>
      </trkpt>
      <trkpt lat="43.52941" lon="5.24725">
        <ele>66</ele>
        <time>2021-12-14T18:34:51+01:00</time>
      </trkpt>
      <trkpt lat="43.52891" lon="5.24626">
        <ele>62</ele>
        <time>2021-12-14T18:34:56+01:00</time>
      </trkpt>
      <trkpt lat="43.52706" lon="5.2442">
        <ele>53</ele>
        <time>2021-12-14T18:35:01+01:00</time>
      </trkpt>
      <trkpt lat="43.52609" lon="5.24275">
        <ele>49</ele>
        <time>2021-12-14T18:35:06+01:00</time>
      </trkpt>
      <trkpt lat="43.52455" lon="5.24081">
        <ele>45</ele>
        <time>2021-12-14T18:35:11+01:00</time>
      </trkpt>
      <trkpt lat="43.52192" lon="5.23706">
        <ele>42</ele>
        <time>2021-12-14T18:35:16+01:00</time>
      </trkpt>
      <trkpt lat="43.5207" lon="5.2359">
        <ele>40</ele>
        <time>2021-12-14T18:35:21+01:00</time>
      </trkpt>
      <trkpt lat="43.5198" lon="5.23491">
        <ele>40</ele>
        <time>2021-12-14T18:35:26+01:00</time>
      </trkpt>
      <trkpt lat="43.51931" lon="5.23407">
        <ele>40</ele>
        <time>2021-12-14T18:35:31+01:00</time>
      </trkpt>
      <trkpt lat="43.51942" lon="5.23262">
        <ele>40</ele>
        <time>2021-12-14T18:35:36+01:00</time>
      </trkpt>
      <trkpt lat="43.51773" lon="5.23154">
        <ele>35</ele>
        <time>2021-12-14T18:35:41+01:00</time>
      </trkpt>
      <trkpt lat="43.51727" lon="5.23192">
        <ele>35</ele>
        <time>2021-12-14T18:35:46+01:00</time>
      </trkpt>
      <trkpt lat="43.51668" lon="5.23204">
        <ele>35</ele>
        <time>2021-12-14T18:35:51+01:00</time>
      </trkpt>
      <trkpt lat="43.51577" lon="5.23207">
        <ele>40</ele>
        <time>2021-12-14T18:35:56+01:00</time>
      </trkpt>
    </trkseg>
  </trk>
</gpx>